Time;durP1;ratioP1;P1;durP2;ratioP2;P2;SDS_P1;SDS_P2;PMS_P1;PMS_P2;Temp;Humidity;BMP_temperature;BMP_pressure;BME280_temperature;BME280_humidity;BME280_pressure;Samples;Min_cycle;Max_cycle;Signal;HPM_P1;HPM_P2
2021/12/11 00:10:30;;;;;;;22.83;18.50;;;22.90;61.50;;;;;;31620761;28;20128;-48
2021/12/11 00:25:32;;;;;;;20.85;17.08;;;22.80;61.60;;;;;;31508525;28;20124;-45
2021/12/11 00:40:36;;;;;;;21.98;17.23;;;22.70;61.60;;;;;;31589087;28;20041;-47
2021/12/11 00:55:42;;;;;;;18.40;14.63;;;22.90;62.00;;;;;;31505454;28;20083;-47
2021/12/11 01:10:47;;;;;;;18.50;13.43;;;23.30;61.70;;;;;;31519719;28;20121;-45
2021/12/11 01:25:49;;;;;;;18.67;13.90;;;23.20;61.50;;;;;;31514063;28;20108;-50
2021/12/11 01:40:55;;;;;;;14.90;12.35;;;23.10;61.70;;;;;;31548984;28;20063;-46
2021/12/11 01:56:05;;;;;;;14.77;12.23;;;23.00;61.60;;;;;;31526628;28;20100;-44
2021/12/11 02:11:22;;;;;;;13.75;11.75;;;22.90;61.60;;;;;;31497542;28;20109;-45
2021/12/11 02:26:27;;;;;;;12.70;10.90;;;22.90;61.80;;;;;;31583171;28;20131;-47
2021/12/11 02:41:49;;;;;;;13.15;10.60;;;22.80;62.20;;;;;;31568202;28;20140;-45
2021/12/11 02:56:57;;;;;;;11.70;10.25;;;22.70;62.80;;;;;;31531982;28;20117;-49
2021/12/11 03:12:02;;;;;;;11.90;10.25;;;23.10;62.50;;;;;;31543812;28;20069;-50
2021/12/11 03:27:07;;;;;;;11.35;10.02;;;23.30;62.60;;;;;;31532054;28;20131;-44
2021/12/11 03:42:23;;;;;;;10.98;8.43;;;23.10;62.40;;;;;;31635686;28;20160;-49
2021/12/11 03:57:29;;;;;;;9.30;8.25;;;23.00;62.70;;;;;;31613063;28;20101;-48
2021/12/11 04:12:31;;;;;;;10.75;8.10;;;22.90;62.60;;;;;;31532869;28;20045;-46
2021/12/11 04:27:33;;;;;;;9.35;8.13;;;22.90;62.50;;;;;;31578981;28;20112;-47
2021/12/11 05:13:23;;;;;;;7.38;6.57;;;23.10;62.70;;;;;;31581269;28;20091;-48
2021/12/11 05:28:25;;;;;;;7.93;7.10;;;23.20;62.40;;;;;;31587275;28;20049;-45
2021/12/11 05:43:27;;;;;;;7.13;6.30;;;23.20;62.10;;;;;;31484307;28;20077;-45
2021/12/11 05:59:03;;;;;;;7.72;6.53;;;23.00;62.30;;;;;;31500731;28;20111;-42
2021/12/11 06:13:58;;;;;;;8.75;6.35;;;22.90;62.60;;;;;;31584090;28;20127;-45
2021/12/11 06:29:00;;;;;;;11.90;6.60;;;22.80;62.30;;;;;;31616782;28;20103;-41
2021/12/11 06:44:03;;;;;;;7.53;5.30;;;22.70;62.20;;;;;;31644125;28;20037;-45
2021/12/11 06:59:06;;;;;;;6.82;4.53;;;23.00;62.00;;;;;;31587773;28;20067;-47
2021/12/11 07:14:10;;;;;;;6.38;3.75;;;23.20;62.00;;;;;;31557802;28;20122;-51
2021/12/11 07:29:17;;;;;;;19.92;13.85;;;23.20;62.00;;;;;;31632272;28;20066;-50
2021/12/11 07:44:20;;;;;;;241.13;205.07;;;22.70;57.40;;;;;;31574270;28;20056;-47
2021/12/11 07:59:22;;;;;;;205.27;159.25;;;22.40;54.30;;;;;;31600135;28;20041;-41
2021/12/11 08:14:24;;;;;;;186.57;129.75;;;22.50;55.60;;;;;;31587286;28;20101;-44
2021/12/11 08:29:28;;;;;;;134.70;94.45;;;22.80;57.70;;;;;;31585531;28;20111;-47
2021/12/11 08:44:35;;;;;;;106.25;86.78;;;23.10;57.30;;;;;;31519016;28;20045;-44
2021/12/11 08:59:42;;;;;;;102.10;79.80;;;23.10;57.90;;;;;;31529712;28;20044;-50
2021/12/11 09:14:52;;;;;;;86.35;70.53;;;23.00;58.70;;;;;;31530254;28;20041;-44
2021/12/11 09:30:00;;;;;;;81.38;66.80;;;22.90;59.30;;;;;;31557895;28;20087;-49
2021/12/11 09:45:08;;;;;;;68.50;56.92;;;22.80;59.60;;;;;;31500990;28;20045;-48
2021/12/11 10:00:16;;;;;;;59.92;49.22;;;22.90;59.30;;;;;;31572464;28;20048;-47
2021/12/11 10:15:28;;;;;;;53.50;42.10;;;23.20;59.10;;;;;;31501734;28;20036;-44
2021/12/11 10:30:34;;;;;;;43.58;35.08;;;23.10;59.20;;;;;;31548826;28;20065;-46
2021/12/11 10:45:36;;;;;;;38.22;31.17;;;23.00;59.50;;;;;;31567724;28;20052;-43
2021/12/11 11:00:47;;;;;;;51.90;32.17;;;22.90;59.70;;;;;;31557349;28;20049;-50
2021/12/11 11:15:51;;;;;;;78.72;37.15;;;22.70;60.00;;;;;;31573745;28;20041;-58
2021/12/11 11:31:15;;;;;;;105.53;40.67;;;23.10;60.30;;;;;;31573830;28;20104;-48
2021/12/11 11:46:19;;;;;;;97.80;41.45;;;23.20;59.40;;;;;;31580309;28;20119;-54
2021/12/11 12:01:30;;;;;;;80.80;34.00;;;23.10;59.50;;;;;;31611065;28;20475;-46
2021/12/11 12:16:34;;;;;;;77.90;31.73;;;23.00;59.40;;;;;;31553183;28;20048;-51
2021/12/11 12:31:42;;;;;;;58.42;26.33;;;22.90;59.40;;;;;;31587182;28;20053;-47
2021/12/11 12:46:55;;;;;;;44.03;22.63;;;22.90;59.70;;;;;;31628664;28;20108;-44
2021/12/11 13:02:12;;;;;;;42.88;21.35;;;22.90;60.10;;;;;;31631235;28;20076;-51
2021/12/11 13:17:28;;;;;;;45.60;19.02;;;22.70;60.50;;;;;;31539379;28;20037;-47
2021/12/11 13:32:31;;;;;;;29.08;14.63;;;22.90;60.50;;;;;;31625697;28;20067;-43
2021/12/11 13:47:36;;;;;;;23.20;12.82;;;23.20;60.80;;;;;;31654704;28;20040;-46
2021/12/11 14:02:38;;;;;;;22.95;10.60;;;23.20;59.90;;;;;;31669798;28;20040;-50
2021/12/11 14:17:40;;;;;;;21.52;10.60;;;23.10;60.00;;;;;;31615534;28;20047;-48
2021/12/11 14:32:46;;;;;;;15.52;8.45;;;23.10;60.20;;;;;;31632363;28;1265889;-40
2021/12/11 14:47:51;;;;;;;14.65;9.30;;;22.90;60.40;;;;;;31706874;28;20100;-46
2021/12/11 15:02:53;;;;;;;14.30;7.93;;;22.90;60.70;;;;;;31594177;28;20095;-46
2021/12/11 15:17:57;;;;;;;12.13;6.82;;;22.80;60.90;;;;;;31585044;28;20040;-46
2021/12/11 15:33:00;;;;;;;12.52;6.82;;;22.80;60.80;;;;;;31634254;28;20052;-51
2021/12/11 15:48:03;;;;;;;11.88;6.40;;;23.20;60.20;;;;;;31570751;28;20044;-41
2021/12/11 16:03:06;;;;;;;8.93;5.30;;;23.20;60.00;;;;;;31687439;28;20044;-58
2021/12/11 16:18:09;;;;;;;15.30;6.20;;;23.10;60.30;;;;;;31616298;28;20059;-59
2021/12/11 16:33:11;;;;;;;13.88;6.07;;;23.10;61.70;;;;;;31672003;28;20108;-44
2021/12/11 16:48:21;;;;;;;16.52;7.25;;;23.00;62.00;;;;;;31661759;28;20065;-46
2021/12/11 17:03:23;;;;;;;28.03;5.97;;;22.90;62.30;;;;;;31566074;28;20069;-46
2021/12/11 17:18:30;;;;;;;12.63;4.82;;;23.00;60.50;;;;;;31636919;28;20127;-46
2021/12/11 17:33:33;;;;;;;12.18;5.00;;;22.70;59.80;;;;;;31537638;28;20041;-52
2021/12/11 17:48:35;;;;;;;8.15;4.40;;;22.80;60.40;;;;;;31620640;28;20073;-51
2021/12/11 18:03:38;;;;;;;19.00;4.55;;;23.30;62.50;;;;;;31213644;28;9999720;-57
2021/12/11 18:18:46;;;;;;;10.20;3.60;;;23.30;62.40;;;;;;31597915;28;20044;-58
2021/12/11 18:33:49;;;;;;;20.33;13.55;;;23.30;61.90;;;;;;31591355;28;20056;-41
2021/12/11 18:48:52;;;;;;;96.25;81.53;;;23.30;62.70;;;;;;31600712;28;20123;-44
2021/12/11 19:04:00;;;;;;;111.28;99.07;;;23.30;62.50;;;;;;31533029;28;20045;-41
2021/12/11 19:19:04;;;;;;;112.78;98.00;;;23.20;63.20;;;;;;31584575;28;20064;-62
2021/12/11 19:34:08;;;;;;;103.32;91.35;;;23.10;63.10;;;;;;31588244;28;20136;-51
2021/12/11 19:49:12;;;;;;;92.78;81.85;;;23.10;62.90;;;;;;31646873;28;22932;-45
2021/12/11 20:04:16;;;;;;;85.45;72.25;;;23.00;63.80;;;;;;31599123;28;20045;-60
2021/12/11 20:19:32;;;;;;;62.53;52.53;;;22.90;64.10;;;;;;31546602;28;20073;-58
2021/12/11 20:34:35;;;;;;;58.97;48.05;;;22.80;63.80;;;;;;31650694;28;20121;-58
2021/12/11 20:49:43;;;;;;;53.75;43.70;;;22.80;63.30;;;;;;31558408;28;20046;-58
2021/12/11 21:04:49;;;;;;;45.30;37.10;;;22.80;63.90;;;;;;31620315;28;20634;-48
2021/12/11 21:19:55;;;;;;;37.08;30.10;;;22.80;64.10;;;;;;31615724;28;20068;-60
2021/12/11 21:35:05;;;;;;;29.27;24.70;;;22.80;64.00;;;;;;31579810;28;20056;-50
2021/12/11 21:50:13;;;;;;;28.13;22.33;;;22.70;63.90;;;;;;31649652;28;20127;-62
2021/12/11 22:05:21;;;;;;;20.48;17.30;;;22.70;63.70;;;;;;31617790;28;20071;-57
2021/12/11 22:20:28;;;;;;;13.80;11.68;;;23.00;63.80;;;;;;31555804;28;20091;-57
2021/12/11 22:35:55;;;;;;;10.18;8.40;;;23.30;63.30;;;;;;31257906;28;20054;-49
2021/12/11 22:51:09;;;;;;;8.18;6.20;;;23.30;63.10;;;;;;31259458;28;20053;-57
2021/12/11 23:06:12;;;;;;;9.32;5.30;;;23.20;63.20;;;;;;31304733;28;20062;-57
2021/12/11 23:21:32;;;;;;;10.20;7.82;;;23.10;63.20;;;;;;31327144;28;20077;-60
2021/12/11 23:36:40;;;;;;;11.37;7.23;;;23.00;63.10;;;;;;31678276;28;20184;-59
2021/12/11 23:51:46;;;;;;;7.93;5.83;;;23.00;63.10;;;;;;31746090;28;20065;-47
